Latest Coastal Weather Observations for Sydney Airport

IDN60701

Issued at 11:31 pm EST Wednesday 25 May 2022 (issued every 10 minutes, with the page automatically refreshed every 10 minutes)

About coastal observations | Map of coastal stations | Coastal observations for NSW | Marine services | Other Formats
Station Details ID: 066037 Name: SYDNEY AIRPORT AMO Lat: -33.95 Lon: 151.17 Height: 6.0 m
Data from the previous 72 hours. | See also: Recent months at Sydney Airport
Date/Time
EST
Wind Sea
Height
m
Swell Vis
km
Cloud Weather Temp
°C
Press
MSL
hPa
Rain since
9am
mm
Dir  Spd
kts
Gust
kts
Height
m
Period
s
Dir
25/11:00pm NNW 6 9 - - - - 10 Mostly clear - 13.6 1021.5 0.4
25/10:30pm WNW 6 7 - - - - 10 Mostly clear - 13.6 1021.6 0.4
25/10:00pm WNW 8 11 - - - - 10 Mostly clear - 14.3 1021.9 0.4
25/09:30pm WSW 6 14 - - - - 10 Mostly clear - 15.2 1022.0 0.4
25/09:00pm SW 6 11 - - - - 25 Mostly clear Fine 14.8 1021.9 0.4
25/08:30pm SW 6 7 - - - - 10 Mostly clear Drizzle 14.7 1022.0 0.4
25/08:00pm WSW 7 7 - - - - 10 Mostly clear - 15.1 1022.0 0.4
25/07:30pm SW 5 6 - - - - 10 Partly cloudy - 15.2 1021.9 0.4
25/07:00pm SW 6 7 - - - - 10 - - 15.2 1021.8 0.4
25/06:30pm SW 8 9 - - - - 10 Partly cloudy - 15.2 1021.7 0.4
25/06:00pm S 6 7 - - - - 10 Mostly clear - 15.9 1022.1 0.4
25/05:30pm S 5 6 - - - - 10 Mostly clear - 16.2 1022.0 0.4
25/05:00pm SE 7 8 - - - - 10 Mostly clear - 16.2 1021.8 0.4
25/04:30pm SSE 8 11 - - - - 10 Mostly clear - 17.0 1021.8 0.4
25/04:00pm S 8 13 - - - - 10 Mostly clear - 16.9 1021.8 0.4
25/03:30pm S 8 11 - - - - 10 Mostly clear - 17.0 1021.8 0.4
25/03:00pm SSE 8 10 - - - - 25 Mostly cloudy Distant precip. 17.2 1021.7 0.4
25/02:30pm SSE 8 9 - - - - 10 Mostly clear - 17.3 1021.8 0.4
25/02:00pm S 6 7 - - - - 10 Mostly clear - 17.1 1021.9 0.4
25/01:30pm SSE 7 9 - - - - 10 Mostly clear - 17.4 1022.2 0.4
25/01:00pm SSE 7 8 - - - - 10 Mostly clear - 17.2 1022.5 0.4
25/12:30pm S 6 8 - - - - 10 Mostly clear - 16.8 1022.9 0.4
25/12:00pm - 4 7 - - - - 8 Mostly cloudy Showers 17.0 1023.6 0.2
25/11:30am S 6 7 - - - - 10 Mostly clear - 17.8 1024.1 0.0
25/11:00am SW 1 6 - - - - 10 Mostly clear - 17.5 1024.6 0.0
25/10:30am NW 5 10 - - - - 10 Mostly clear - 18.3 1024.9 0.0
25/10:00am NW 5 6 - - - - 10 Mostly clear - 17.0 1025.3 0.0
25/09:30am NNW 7 8 - - - - 10 Mostly clear - 16.3 1025.5 0.0
25/09:00am WNW 4 7 - - - - 25 Partly cloudy Distant precip. 15.8 1025.3 4.2
25/08:30am SW 6 12 - - - - 10 Mostly clear - 14.7 1025.2 4.2
25/08:00am SW 8 9 - - - - 10 Mostly clear - 14.1 1025.1 4.2
25/07:30am WSW 8 13 - - - - 10 Mostly clear Rain 12.7 1025.1 4.2
25/07:00am WSW 9 11 - - - - 10 Mostly clear - 11.9 1025.1 4.2
25/06:30am WSW 7 10 - - - - 10 Mostly clear Rain 11.8 1025.5 4.0
25/06:00am WNW 5 6 - - - - 8 Cloudy Showers 12.0 1025.2 3.8
25/05:30am NW 7 14 - - - - 9 Mostly clear Showers 12.4 1025.0 2.4
25/05:00am N 9 12 - - - - 10 Mostly clear - 12.1 1025.1 2.4
25/04:30am NNW 8 10 - - - - 10 Mostly clear - 11.5 1024.6 2.4
25/04:00am NW 7 8 - - - - 10 Mostly clear - 11.2 1024.6 2.4
25/03:30am NW 7 7 - - - - 10 Mostly clear - 11.4 1024.9 2.4
25/03:00am NW 6 8 - - - - 18 Mostly clear Fine 11.5 1024.8 2.4
25/02:30am NNW 8 9 - - - - 10 Mostly clear - 12.0 1025.1 2.4
25/02:00am NNW 2 5 - - - - 10 Mostly clear - 12.3 1025.5 2.4
25/01:30am W 7 8 - - - - 10 Mostly clear - 13.0 1025.7 2.4
25/01:00am WSW 7 8 - - - - 10 Mostly clear - 12.9 1025.9 2.4
25/12:30am NNW 3 6 - - - - 10 Mostly clear Rain 13.6 1026.0 2.4
25/12:00am N 5 5 - - - - 18 Mostly cloudy Showers 13.3 1026.4 2.2
 
Date/Time
EST
Wind Sea
Height
m
Swell Vis
km
Cloud Weather Temp
°C
Press
MSL
hPa
Rain since
9am
mm
Dir  Spd
kts
Gust
kts
Height
m
Period
s
Dir
24/11:30pm WNW 5 6 - - - - 10 Mostly clear - 13.8 1026.5 2.2
24/11:00pm W 6 7 - - - - 10 Mostly clear - 13.7 1026.7 2.2
24/10:30pm SW 5 5 - - - - 10 Mostly clear - 13.5 1027.0 2.2
24/10:00pm W 5 6 - - - - 10 Mostly clear - 13.8 1027.1 2.2
24/09:30pm WNW 5 8 - - - - 10 Mostly clear Showers 14.5 1027.1 2.2
24/09:00pm W 4 6 - - - - 20 Mostly cloudy Showers 14.5 1027.3 2.0
24/08:30pm WNW 6 8 - - - - 10 Mostly clear Showers 14.9 1027.2 1.8
24/08:00pm WSW 7 8 - - - - 10 Mostly clear - 14.3 1027.0 1.8
24/07:30pm SSW 5 6 - - - - 10 Partly cloudy - 14.7 1026.9 1.8
24/07:00pm E 2 4 - - - - 10 Partly cloudy - 14.8 1026.7 1.8
24/06:30pm E 7 11 - - - - 10 Partly cloudy - 15.2 1026.5 1.8
24/06:00pm NE 4 5 - - - - 10 - Rain 16.1 1026.2 1.8
24/05:30pm NNE 5 6 - - - - 10 Mostly clear - 15.7 1026.1 1.8
24/05:00pm NE 5 5 - - - - 10 Mostly clear - 16.4 1026.0 1.8
24/04:30pm NNE 4 5 - - - - 10 Mostly clear - 17.1 1026.0 1.8
24/04:00pm NNE 5 6 - - - - 10 Mostly clear - 17.5 1025.9 1.8
24/03:30pm NNE 5 7 - - - - 10 Mostly clear - 17.7 1026.0 1.8
24/03:00pm NNE 7 8 - - - - 25 Mostly cloudy Distant precip. 17.6 1026.1 1.8
24/02:30pm NNE 6 7 - - - - 10 Mostly clear - 17.0 1026.1 1.8
24/02:00pm N 5 6 - - - - 10 Partly cloudy - 16.5 1026.2 1.8
24/01:30pm N 4 5 - - - - 10 Mostly clear Drizzle 16.0 1026.4 1.8
24/01:00pm NE 6 8 - - - - 10 Partly cloudy - 15.7 1026.8 1.8
24/12:30pm SW 9 13 - - - - 10 Mostly clear Drizzle 15.5 1027.0 1.8
24/12:00pm SSW 13 19 - - - - 20 Mostly cloudy Showers 15.2 1027.4 1.2
24/11:30am SW 10 14 - - - - 10 Partly cloudy Drizzle 16.5 1027.6 0.0
24/11:00am W 5 11 - - - - 10 Partly cloudy - 16.3 1028.0 0.0
24/10:30am WNW 6 10 - - - - 10 Mostly clear - 16.2 1028.3 0.0
24/10:00am NW 5 7 - - - - 10 Mostly clear - 15.9 1028.4 0.0
24/09:30am WNW 5 6 - - - - 10 Mostly clear - 15.5 1028.4 0.0
24/09:00am NW 7 9 - - - - 25 Mostly cloudy Fine 14.8 1028.5 59.0
24/08:30am NW 7 8 - - - - 10 Mostly clear - 14.5 1028.4 59.0
24/08:00am NNW 6 8 - - - - 10 Mostly clear - 14.1 1028.3 59.0
24/07:30am NW 7 9 - - - - 10 Mostly clear - 13.7 1028.0 59.0
24/07:00am NW 7 8 - - - - 10 Mostly clear - 13.5 1027.9 59.0
24/06:30am NW 8 9 - - - - 10 Mostly clear - 13.7 1027.7 59.0
24/06:00am NW 5 6 - - - - 15 Mostly cloudy Distant precip. 14.2 1027.5 59.0
24/05:30am WNW 5 7 - - - - 10 Mostly clear Rain 13.4 1027.3 58.8
24/05:00am WNW 6 8 - - - - 10 Mostly clear - 13.6 1027.4 58.8
24/04:30am W 8 11 - - - - 9 Mostly clear Rain 13.4 1027.4 58.6
24/04:00am WNW 5 7 - - - - 7 Mostly clear - 13.4 1027.1 56.8
24/03:30am N 4 6 - - - - 8 Mostly clear Rain 13.9 1027.6 55.0
24/03:11am N 6 8 - - - - 8 Mostly clear Showers 14.0 1027.8 54.2
24/03:00am N 7 9 - - - - 14 Cloudy Showers 14.0 1027.9 53.8
24/02:58am N 8 11 - - - - 6 Mostly clear Showers 13.9 1028.0 53.6
24/02:30am SE 8 10 - - - - 8 Mostly clear Showers 14.2 1027.9 52.0
24/02:01am S 9 15 - - - - 10 Partly cloudy - 15.1 1027.7 49.8
24/02:00am S 9 15 - - - - 8 Mostly clear - 15.0 1027.7 49.8
24/01:46am WSW 11 25 - - - - 9 Mostly clear Showers 14.6 1027.9 49.6
24/01:30am S 8 10 - - - - 8 Mostly clear Showers 14.3 1027.8 45.0
24/01:00am SSW 7 10 - - - - 10 Mostly clear - 14.1 1027.9 44.8
24/12:49am N 7 11 - - - - 8 Mostly clear Showers 13.6 1028.0 43.4
24/12:35am NW 4 7 - - - - 6 Mostly clear Showers 13.3 1027.9 35.2
24/12:30am WNW 6 7 - - - - 9 Mostly clear Showers 13.8 1027.7 33.4
24/12:00am W 6 7 - - - - 20 Mostly cloudy Distant precip. 13.3 1028.1 33.4
 
Date/Time
EST
Wind Sea
Height
m
Swell Vis
km
Cloud Weather Temp
°C
Press
MSL
hPa
Rain since
9am
mm
Dir  Spd
kts
Gust
kts
Height
m
Period
s
Dir
23/11:30pm WNW 7 7 - - - - 10 Mostly clear - 13.6 1028.1 33.4
23/11:00pm WNW 5 7 - - - - 10 Mostly clear - 14.1 1028.4 33.4
23/10:30pm SSW 4 5 - - - - 10 Mostly clear - 14.7 1028.4 33.4
23/10:00pm SSE 7 10 - - - - 10 Mostly clear - 14.9 1028.5 33.4
23/09:30pm SE 7 10 - - - - 10 Mostly clear - 16.4 1028.6 33.4
23/09:00pm SSE 8 11 - - - - 25 Mostly cloudy Rain 15.8 1028.6 33.4
23/08:30pm SSE 10 14 - - - - 10 Mostly clear Rain 15.5 1028.6 33.4
23/08:00pm SSE 10 13 - - - - 10 Mostly clear - 15.6 1028.6 33.4
23/07:30pm S 9 11 - - - - 10 Cloudy - 14.7 1028.6 33.4
23/07:00pm SSW 7 9 - - - - 10 Partly cloudy - 14.7 1028.5 33.4
23/06:30pm S 6 7 - - - - 10 Partly cloudy - 14.7 1028.4 33.4
23/06:00pm S 8 9 - - - - 10 Cloudy Drizzle 14.8 1028.5 33.4
23/05:30pm S 9 11 - - - - 10 Mostly clear - 14.8 1028.4 33.4
23/05:00pm S 8 10 - - - - 10 Mostly clear - 15.0 1028.2 33.2
23/04:30pm SSE 5 6 - - - - 10 Mostly clear - 14.7 1028.1 33.2
23/04:00pm SSE 4 5 - - - - 10 Mostly clear - 14.9 1028.1 33.2
23/03:30pm ENE 5 7 - - - - 10 Mostly clear Rain 15.4 1027.9 32.8
23/03:00pm ENE 10 14 - - - - 15 Cloudy Rain 15.2 1027.9 32.4
23/02:30pm E 13 17 - - - - 10 Mostly clear Showers 15.4 1027.8 31.6
23/02:00pm E 10 13 - - - - 10 Mostly clear - 15.9 1027.8 31.2
23/01:30pm E 10 14 - - - - 10 Mostly clear Rain 15.8 1027.9 31.0
23/01:00pm E 11 14 - - - - 10 Mostly clear - 15.9 1027.7 30.8
23/12:30pm ENE 7 8 - - - - 10 Mostly clear Rain 16.4 1028.0 30.8
23/12:00pm SSW 7 10 - - - - 12 Mostly cloudy Showers 15.0 1028.3 30.8
23/11:30am S 6 9 - - - - 10 Mostly clear Showers 14.0 1028.9 30.8
23/11:25am SW 7 9 - - - - 10 Mostly clear Showers 14.2 1028.8 30.8
23/11:00am WSW 10 14 - - - - 6 Mostly clear - 14.3 1029.1 27.6
23/10:51am W 13 17 - - - - 6 Mostly clear Showers 14.5 1029.0 27.6
23/10:38am WSW 10 14 - - - - 3 Mostly clear Thunderstorm 14.4 1029.3 26.4
23/10:30am SW 9 13 - - - - 5 Mostly clear Thunderstorm 14.4 1029.3 25.6
23/10:20am SW 8 12 - - - - 2 Partly cloudy Thunderstorm 14.2 1029.4 22.0
23/10:12am SSW 10 17 - - - - 4 Mostly clear Thunderstorm 14.5 1029.3 19.6
23/10:00am E 5 12 - - - - 2 Mostly clear - 14.4 1029.3 14.4
23/09:39am WSW 12 15 - - - - 2 Mostly clear Thunderstorm 14.5 1028.8 7.6
23/09:32am SW 12 14 - - - - 3 Mostly clear Showers 14.6 1029.0 3.2
23/09:30am SW 11 14 - - - - 3 Mostly clear Showers 14.6 1029.0 2.0
23/09:21am SW 9 13 - - - - 3 Mostly clear Showers 14.6 1028.9 1.2
23/09:00am SW 9 11 - - - - 12 Mostly cloudy Showers 14.9 1028.8 8.2
23/08:30am SW 14 16 - - - - 6 Mostly clear Showers 14.6 1028.5 8.2
23/08:00am WSW 11 15 - - - - 10 Mostly clear - 13.5 1028.4 8.2
23/07:30am W 7 9 - - - - 10 Mostly clear - 13.6 1028.3 8.2
23/07:00am WSW 7 9 - - - - 10 Mostly clear - 14.1 1028.1 8.2
23/06:30am W 6 9 - - - - 10 Mostly clear - 13.1 1028.0 8.2
23/06:00am W 8 9 - - - - 25 Mostly cloudy Distant precip. 13.1 1027.5 8.2
23/05:30am W 8 9 - - - - 10 Mostly clear - 12.9 1027.5 8.2
23/05:00am W 8 10 - - - - 10 Mostly clear - 12.6 1027.4 8.2
23/04:30am WNW 9 10 - - - - 10 Mostly clear Rain 12.7 1027.4 8.0
23/04:00am NW 7 9 - - - - 10 Mostly clear - 13.2 1027.5 7.4
23/03:30am WNW 9 11 - - - - 10 Mostly clear Thunderstorm 13.1 1027.6 6.6
23/03:00am W 8 14 - - - - 12 Cloudy Thunderstorm 13.1 1027.6 5.4
23/02:30am N 8 10 - - - - 9 Mostly clear Thunderstorm 12.9 1027.7 4.4
23/02:00am NW 8 10 - - - - 10 Mostly clear - 13.1 1027.6 3.2
23/01:53am NW 8 10 - - - - 10 Mostly clear Thunderstorm 13.1 1027.5 3.2
23/01:30am NW 9 11 - - - - 10 Mostly clear - 13.2 1027.5 3.2
23/01:00am WNW 7 8 - - - - 10 Mostly clear - 14.1 1027.8 3.2
23/12:30am S 8 10 - - - - 10 Partly cloudy - 14.7 1027.4 3.2
23/12:00am S 9 11 - - - - 20 Mostly cloudy Distant precip. 15.2 1027.4 3.2

Other formats

Comma delimited format used in spreadsheet applications
http://www.bom.gov.au/fwo/IDN60701/IDN60701.94767.axf

JavaScript Object Notation format (JSON) in row-major order
http://www.bom.gov.au/fwo/IDN60701/IDN60701.94767.json

Data quality

Most of these data are generated automatically and are frequently updated. Quality checks on data are not normally performed. It is possible for incorrect values to appear. Refer to information at About Latest Weather Observations and please check the disclaimer before using these data.